• Join FlightAware (Why Join?)
  • Login
  • US Flag 
09:19PM EST


 

Airport Tracker/Info


-or-


 

Live Flight TrackerFlight Track Log ✈ EJA922 ✈ 31-Aug-2013 ✈ KRDU - KFRG

Flight Track Log - Related Links

Times and Time Zones

All times are in EDT time to prevent confusion due to time zone crossing. See the EJA922 flight status page for this flight to view local times or setup timezone preferences in your user account.

Time Position Orientation Groundspeed Altitude Reporting Facility
EDT Latitude Longitude Course Direction KTS MPH feet Rate Location/Type
10:36AM 35.8583 -78.8033 199° South 182 209 1,500  Level Washington Center
10:38AM 35.7867 -78.8336 199° South 223 257 7,200 3,720 Climbing Washington Center
10:39AM 35.7394 -78.8036 153° Southeast 207 238 10,300 2,820 Climbing Washington Center
10:40AM 35.7758 -78.6922 68° East 184 212 12,900 2,460 Climbing Washington Center
10:41AM 35.8250 -78.5689 64° Northeast 288 331 15,200 2,160 Climbing Washington Center
10:42AM 35.8786 -78.4222 66° East 376 433 17,200 1,620 Climbing Washington Center
10:43AM 35.9208 -78.3031 66° East 406 467 18,500 1,500 Climbing Washington Center
10:44AM 35.9367 -78.1575 82° East 412 474 20,300 1,620 Climbing Washington Center
10:45AM 35.9500 -78.0167 83° East 417 480 21,800 1,560 Climbing Washington Center
10:46AM 35.9633 -77.8683 84° East 423 487 23,400 1,500 Climbing Washington Center
10:47AM 35.9786 -77.7197 83° East 428 493 24,900 1,380 Climbing Washington Center
10:48AM 36.0453 -77.5958 56° Northeast 420 483 26,300 1,020 Climbing Washington Center
10:49AM 36.1206 -77.4692 54° Northeast 432 497 27,000 300 Climbing Washington Center
10:50AM 36.2017 -77.3372 53° Northeast 455 524 27,000  Level Washington Center
10:51AM 36.2872 -77.2025 52° Northeast 481 554 27,100 480 Climbing Washington Center
10:52AM 36.3928 -77.0911 40° Northeast 489 563 28,000 900 Climbing Washington Center
10:53AM 36.5006 -76.9872 38° Northeast 489 563 29,000 960 Climbing Washington Center
10:54AM 36.6103 -76.8831 37° Northeast 489 563 30,000 1,020 Climbing Washington Center
10:55AM 36.7178 -76.7786 38° Northeast 489 563 31,000 1,020 Climbing Washington Center
10:56AM 36.8378 -76.6636 37° Northeast 494 568 32,100 1,020 Climbing Washington Center
10:57AM 36.9492 -76.5536 38° Northeast 494 568 33,100 900 Climbing Washington Center
10:58AM 37.0583 -76.4481 38° Northeast 494 568 34,000 900 Climbing Washington Center
10:59AM 37.1697 -76.3400 38° Northeast 494 568 34,900 840 Climbing Washington Center
11:00AM 37.2831 -76.2286 38° Northeast 494 568 35,800 900 Climbing Washington Center
11:01AM 37.3878 -76.1356 35° Northeast 494 568 36,700 600 Climbing Washington Center
11:02AM 37.5092 -76.0158 38° Northeast 506 582 37,000 120 Climbing Washington Center
11:03AM 37.6222 -75.9039 38° Northeast 506 582 37,000  Level Washington Center
11:04AM 37.7372 -75.7889 38° Northeast 514 592 37,000  Level Washington Center
11:05AM 37.8542 -75.6733 38° Northeast 519 597 37,000  Level Washington Center
11:06AM 37.9667 -75.5603 38° Northeast 519 597 37,000  Level Washington Center
11:07AM 38.0856 -75.4492 36° Northeast 524 603 37,000 -240 Level Washington Center
11:08AM 38.2147 -75.3672 26° Northeast 519 597 36,600 -720 Descending Washington Center
11:09AM 38.3311 -75.2953 26° Northeast 512 589 35,600 -1,080 Descending Washington Center
11:10AM 38.4581 -75.2100 28° Northeast 512 589 34,500 -1,080 Descending Washington Center
11:11AM 38.5914 -75.1294 25° Northeast 512 589 33,500 -780 Descending Washington Center
11:12AM 38.7203 -75.0408 28° Northeast 512 589 33,000 -300 Descending Washington Center
11:13AM 38.8511 -74.9600 26° Northeast 512 589 33,000 -600 Level Washington Center
11:14AM 38.9797 -74.8733 28° Northeast 512 589 31,900 -1,800 Descending Washington Center
11:15AM 39.1128 -74.7836 28° Northeast 512 589 29,400 -2,580 Descending Washington Center
11:16AM 39.2244 -74.6619 40° Northeast 524 603 26,900 -2,400 Descending Washington Center
11:18AM 39.4831 -74.3806 40° Northeast 499 574 21,400 -2,280 Descending New York Center
11:19AM 39.5800 -74.2750 40° Northeast 472 543 19,200 -1,740 Descending New York Center
11:20AM 39.6897 -74.1592 39° Northeast 456 525 18,000 -1,740 Descending New York Center
11:21AM 39.7867 -74.0531 40° Northeast 456 525 15,800 -2,160 Descending New York Center
11:22AM 39.8831 -73.9603 36° Northeast 450 518 13,700 -2,280 Descending New York Center
11:23AM 39.9658 -73.9017 28° Northeast 397 457 11,300 -1,380 Descending New York Center
11:24AM 40.0467 -73.8431 29° Northeast 348 400 11,000 -900 Descending New York Center
11:25AM 40.1253 -73.7869 29° Northeast 299 344 9,600 -1,500 Descending New York Center
11:26AM 40.1833 -73.7500 26° Northeast 297 342 8,400 -1,680 Descending New York TRACON
11:27AM 40.2500 -73.7000 30° Northeast 306 352 6,700 -1,740 Descending New York TRACON
11:28AM 40.3167 -73.6500 30° Northeast 298 343 5,000 -1,800 Descending New York TRACON
11:29AM 40.4000 -73.6000 25° Northeast 290 334 3,200 -1,500 Descending New York TRACON
11:30AM 40.4667 -73.5500 30° Northeast 282 325 2,000 -600 Descending New York TRACON
11:31AM 40.5333 -73.5000 30° Northeast 275 316 2,100  Climbing New York TRACON
11:32AM 40.6000 -73.4667 21° North 278 320 2,100 -60 Level New York TRACON
11:33AM 40.6667 -73.4167 30° Northeast 281 323 2,000  Descending New York TRACON
11:34AM 40.7333 -73.3833 21° North 279 321 2,100  Climbing New York TRACON
11:35AM 40.8000 -73.3500 21° North 243 280 2,000  Descending New York TRACON
11:36AM 40.8500 -73.3167 27° Northeast 215 247 2,100  Climbing New York TRACON
11:37AM 40.9000 -73.3500 333° Northwest 202 232 2,000 -60 Descending New York TRACON
11:38AM 40.8667 -73.4000 229° Southwest 188 216 2,000 -300 Level New York TRACON
11:39AM 40.8333 -73.4167 201° Southwest 164 189 1,500 -420 Descending New York TRACON
11:41AM 40.7500 -73.4333 189° South 132 152 800 -420 Descending New York TRACON
11:42AM 40.7288 -73.4134 204° Southwest  Level Estimated
11:49AM 40.7288 -73.4134 204° Southwest  Level Estimated
11:50AM 40.7288 -73.4134 204° Southwest  Level Estimated